Time;durP1;ratioP1;P1;durP2;ratioP2;P2;SDS_P1;SDS_P2;PMS_P1;PMS_P2;Temp;Humidity;BMP_temperature;BMP_pressure;BME280_temperature;BME280_humidity;BME280_pressure;Samples;Min_cycle;Max_cycle;Signal;HPM_P1;HPM_P2
2023/11/18 05:02:13;;;;;;;3.95;3.55;;;4.70;99.90;;;;;;5154911;22;20732;-75
2023/11/18 05:04:41;;;;;;;7.20;4.97;;;4.70;99.90;;;;;;4985878;28;20289;-75
2023/11/18 05:07:07;;;;;;;4.93;4.53;;;4.60;99.90;;;;;;4990147;28;20362;-75
2023/11/18 05:09:35;;;;;;;5.68;4.53;;;4.60;99.90;;;;;;4986448;28;20208;-74
2023/11/18 05:12:02;;;;;;;4.57;4.13;;;4.60;99.90;;;;;;4966845;28;20228;-74
2023/11/18 05:14:29;;;;;;;5.43;4.90;;;4.50;99.90;;;;;;4972161;28;20207;-74
2023/11/18 05:16:56;;;;;;;4.40;3.90;;;4.50;99.90;;;;;;4971430;28;20208;-74
2023/11/18 05:19:24;;;;;;;4.07;3.70;;;4.40;99.90;;;;;;4970618;28;20659;-74
2023/11/18 05:21:51;;;;;;;5.40;4.90;;;4.30;99.90;;;;;;4970504;28;20605;-74
2023/11/18 05:24:18;;;;;;;4.75;4.45;;;4.30;99.90;;;;;;4970648;28;20235;-74
2023/11/18 05:26:44;;;;;;;4.53;4.13;;;4.20;99.90;;;;;;4967760;28;20220;-74
2023/11/18 05:29:16;;;;;;;7.10;4.57;;;4.20;99.90;;;;;;4965358;28;20212;-74
2023/11/18 05:31:42;;;;;;;5.63;4.65;;;4.10;99.90;;;;;;4965312;28;20263;-74
2023/11/18 05:34:09;;;;;;;4.72;4.28;;;4.10;99.90;;;;;;4962602;28;20216;-74
2023/11/18 05:36:37;;;;;;;4.40;4.10;;;4.00;99.90;;;;;;4965005;28;20620;-74
2023/11/18 05:39:07;;;;;;;7.10;5.25;;;4.00;99.90;;;;;;4961726;28;20209;-74
2023/11/18 05:41:35;;;;;;;6.38;5.18;;;3.90;99.90;;;;;;4959112;28;20311;-74
2023/11/18 05:44:01;;;;;;;5.97;5.20;;;3.90;99.90;;;;;;4960918;28;20353;-74
2023/11/18 05:46:29;;;;;;;6.43;4.72;;;3.90;99.90;;;;;;4963733;28;20568;-74
2023/11/18 05:48:57;;;;;;;6.00;5.13;;;3.80;99.90;;;;;;4972233;28;20227;-74
2023/11/18 05:51:25;;;;;;;6.78;6.18;;;3.80;99.90;;;;;;4972640;28;20282;-74
2023/11/18 05:53:55;;;;;;;5.15;4.32;;;3.80;99.90;;;;;;4970329;28;20274;-75
2023/11/18 05:56:23;;;;;;;6.32;4.10;;;3.80;99.90;;;;;;4965249;28;20296;-74
2023/11/18 05:58:49;;;;;;;5.22;4.03;;;3.80;99.90;;;;;;4971736;28;20610;-74
2023/11/18 06:01:17;;;;;;;4.70;4.25;;;3.80;99.90;;;;;;4972687;28;20251;-74
2023/11/18 06:03:44;;;;;;;8.75;6.13;;;3.80;99.90;;;;;;4972849;28;20217;-74
2023/11/18 06:06:12;;;;;;;7.38;5.03;;;3.80;99.90;;;;;;4967681;28;20210;-74
2023/11/18 06:08:40;;;;;;;5.97;4.72;;;3.90;99.90;;;;;;4961782;28;20225;-74
2023/11/18 06:11:13;;;;;;;5.15;4.47;;;3.90;99.90;;;;;;4969478;28;20306;-74
2023/11/18 06:13:44;;;;;;;5.22;4.75;;;3.90;99.90;;;;;;4969411;28;20256;-74
2023/11/18 06:16:14;;;;;;;5.47;4.07;;;3.90;99.90;;;;;;4964302;28;20227;-74
2023/11/18 06:18:44;;;;;;;6.43;4.18;;;3.80;99.90;;;;;;4966879;28;20268;-72
2023/11/18 06:21:12;;;;;;;6.70;6.00;;;3.80;99.90;;;;;;4969527;28;20232;-72
2023/11/18 06:23:38;;;;;;;4.53;3.97;;;3.80;99.90;;;;;;4966605;28;20217;-73
2023/11/18 06:26:06;;;;;;;5.38;4.57;;;3.80;99.90;;;;;;4967648;28;20355;-73
2023/11/18 06:28:34;;;;;;;5.13;4.03;;;3.80;99.90;;;;;;4965484;28;20201;-72
2023/11/18 06:31:01;;;;;;;4.75;4.32;;;3.70;99.90;;;;;;4963931;28;20225;-73
2023/11/18 06:33:28;;;;;;;7.68;5.28;;;3.70;99.90;;;;;;4963136;28;20255;-73
2023/11/18 06:35:56;;;;;;;5.00;4.43;;;3.70;99.90;;;;;;4969111;28;20201;-73
2023/11/18 06:38:24;;;;;;;5.97;4.55;;;3.60;99.90;;;;;;4962649;28;20217;-73
2023/11/18 06:40:52;;;;;;;6.70;4.15;;;3.60;99.90;;;;;;4969961;28;20327;-73
2023/11/18 06:43:20;;;;;;;5.82;3.92;;;3.60;99.90;;;;;;4963805;28;20232;-73
2023/11/18 06:45:48;;;;;;;9.00;4.90;;;3.50;99.90;;;;;;4964974;28;20675;-72
2023/11/18 06:48:19;;;;;;;5.35;4.68;;;3.50;99.90;;;;;;4970885;28;20220;-73
2023/11/18 06:50:47;;;;;;;7.38;4.38;;;3.40;99.90;;;;;;4972461;28;20225;-73
2023/11/18 06:53:15;;;;;;;5.28;4.45;;;3.40;99.90;;;;;;4964612;28;20351;-73
2023/11/18 06:55:42;;;;;;;6.95;4.75;;;3.40;99.90;;;;;;4967653;28;20201;-72
2023/11/18 06:58:09;;;;;;;5.30;4.70;;;3.30;99.90;;;;;;4964325;28;20595;-73
2023/11/18 07:00:38;;;;;;;7.65;5.75;;;3.30;99.90;;;;;;4965382;28;20240;-72
2023/11/18 07:03:06;;;;;;;8.32;5.40;;;3.30;99.90;;;;;;4970678;28;20361;-72
2023/11/18 07:05:33;;;;;;;10.20;7.82;;;3.30;99.90;;;;;;4956661;28;20393;-72
2023/11/18 07:07:59;;;;;;;5.65;4.68;;;3.20;99.90;;;;;;4968602;28;20580;-72
2023/11/18 07:10:27;;;;;;;8.00;5.53;;;3.20;99.90;;;;;;4963270;28;20212;-72
2023/11/18 07:12:54;;;;;;;12.60;5.05;;;3.20;99.90;;;;;;4962681;28;20216;-72
2023/11/18 07:15:21;;;;;;;10.60;7.05;;;3.10;99.90;;;;;;4957067;28;20212;-72
2023/11/18 07:17:47;;;;;;;9.75;6.82;;;3.10;99.90;;;;;;4964110;28;20208;-72
2023/11/18 07:20:15;;;;;;;24.67;12.30;;;3.10;99.90;;;;;;4964486;28;20211;-72
2023/11/18 07:22:42;;;;;;;16.30;9.55;;;3.10;99.90;;;;;;4967828;28;20209;-73
2023/11/18 07:25:09;;;;;;;10.82;6.03;;;3.10;99.90;;;;;;4968900;28;20220;-72
2023/11/18 07:27:36;;;;;;;11.65;6.35;;;3.10;99.90;;;;;;4962805;28;20551;-71
2023/11/18 07:30:06;;;;;;;10.38;7.70;;;3.10;99.90;;;;;;4960717;28;20216;-72
2023/11/18 07:32:33;;;;;;;10.27;7.80;;;3.10;99.90;;;;;;4963250;28;20235;-71
2023/11/18 07:35:00;;;;;;;11.73;6.32;;;3.10;99.90;;;;;;4963291;28;20259;-71
2023/11/18 07:37:32;;;;;;;5.22;4.82;;;3.10;99.90;;;;;;4962655;28;20205;-71
2023/11/18 07:40:00;;;;;;;5.80;5.15;;;3.20;99.90;;;;;;4963914;28;20196;-71
2023/11/18 07:42:27;;;;;;;15.10;10.10;;;3.10;99.90;;;;;;4962559;28;20301;-71
2023/11/18 07:44:54;;;;;;;14.77;10.00;;;3.10;99.90;;;;;;4963741;28;20224;-71
2023/11/18 07:47:21;;;;;;;8.02;5.63;;;3.10;99.90;;;;;;4969899;28;20212;-71
2023/11/18 07:49:48;;;;;;;10.30;6.80;;;3.10;99.90;;;;;;4969583;28;20215;-71
2023/11/18 07:52:14;;;;;;;10.43;6.85;;;3.20;99.90;;;;;;4969846;28;20263;-71
2023/11/18 07:54:42;;;;;;;10.88;5.97;;;3.20;99.90;;;;;;4967507;28;20212;-71
2023/11/18 07:57:10;;;;;;;8.55;7.70;;;3.20;99.90;;;;;;4967433;28;20220;-71
2023/11/18 07:59:37;;;;;;;9.15;5.75;;;3.30;99.90;;;;;;4961887;28;20266;-72
2023/11/18 08:02:09;;;;;;;10.25;6.68;;;3.30;99.90;;;;;;4967371;28;20311;-71
2023/11/18 08:04:35;;;;;;;8.30;5.55;;;3.30;99.90;;;;;;4960205;28;20233;-71
2023/11/18 08:07:04;;;;;;;13.52;7.95;;;3.40;99.90;;;;;;4964907;28;20584;-72
2023/11/18 08:09:31;;;;;;;7.82;6.22;;;3.40;99.90;;;;;;4967534;28;20263;-72
2023/11/18 08:11:59;;;;;;;6.13;4.88;;;3.40;99.90;;;;;;4965497;28;20635;-72
2023/11/18 08:14:26;;;;;;;9.57;5.20;;;3.40;99.90;;;;;;4964904;28;20217;-72
2023/11/18 08:16:55;;;;;;;6.07;5.20;;;3.40;99.90;;;;;;4960609;28;20582;-72
2023/11/18 08:19:23;;;;;;;9.88;4.57;;;3.50;99.90;;;;;;4955548;28;20213;-72
2023/11/18 08:21:49;;;;;;;6.10;4.68;;;3.50;99.90;;;;;;4961492;28;20311;-72
2023/11/18 08:24:16;;;;;;;8.00;5.50;;;3.60;99.90;;;;;;4970604;28;20220;-71
2023/11/18 08:26:43;;;;;;;5.38;4.82;;;3.60;99.90;;;;;;4959825;28;20236;-72
2023/11/18 08:29:12;;;;;;;9.48;6.50;;;3.60;99.90;;;;;;4972040;28;20213;-72
2023/11/18 08:31:40;;;;;;;5.75;5.05;;;3.70;99.90;;;;;;4967228;28;20252;-72
2023/11/18 08:34:07;;;;;;;5.93;5.05;;;3.70;99.90;;;;;;4958588;28;20213;-72
2023/11/18 08:36:34;;;;;;;5.60;4.05;;;3.70;99.90;;;;;;4968815;28;20212;-71
2023/11/18 08:39:00;;;;;;;7.28;5.30;;;3.80;99.90;;;;;;4966008;28;20660;-72
2023/11/18 08:41:30;;;;;;;8.52;5.53;;;3.80;99.90;;;;;;4966771;28;20229;-71
2023/11/18 08:43:57;;;;;;;4.75;4.32;;;3.80;99.90;;;;;;4972024;28;20219;-71
2023/11/18 08:46:26;;;;;;;7.63;4.75;;;3.90;99.90;;;;;;4965309;28;20224;-71
2023/11/18 08:48:55;;;;;;;6.25;4.95;;;3.90;99.90;;;;;;4972967;28;20773;-72
2023/11/18 08:51:22;;;;;;;8.00;4.38;;;3.90;99.90;;;;;;4973750;28;20224;-72
2023/11/18 08:53:51;;;;;;;5.72;4.70;;;4.00;99.90;;;;;;4963177;28;20264;-72
2023/11/18 08:56:19;;;;;;;6.35;5.28;;;4.00;99.90;;;;;;4968661;28;20629;-72
2023/11/18 08:58:48;;;;;;;10.13;5.88;;;4.00;99.90;;;;;;4961246;28;20211;-72
2023/11/18 09:01:16;;;;;;;4.97;4.43;;;4.00;99.90;;;;;;4971694;28;20601;-72
2023/11/18 09:03:48;;;;;;;5.25;4.45;;;4.00;99.90;;;;;;4971441;28;20246;-70
2023/11/18 09:06:18;;;;;;;6.60;5.20;;;3.90;99.90;;;;;;4967249;28;20251;-70
2023/11/18 09:08:46;;;;;;;7.15;5.20;;;4.00;99.90;;;;;;4965384;28;20220;-70
2023/11/18 09:11:15;;;;;;;5.60;4.68;;;4.10;99.90;;;;;;4972023;28;20228;-70
2023/11/18 09:13:44;;;;;;;6.57;4.60;;;4.10;99.90;;;;;;4971581;28;20246;-73
2023/11/18 09:16:12;;;;;;;8.95;4.90;;;4.20;99.90;;;;;;4969215;28;20208;-70
2023/11/18 09:18:40;;;;;;;6.65;5.00;;;4.30;99.90;;;;;;4966545;28;20212;-70
2023/11/18 09:21:14;;;;;;;6.75;3.47;;;4.40;99.90;;;;;;4971489;28;20312;-69
2023/11/18 09:23:41;;;;;;;4.43;4.13;;;4.40;99.90;;;;;;4970206;28;20267;-71
2023/11/18 09:26:08;;;;;;;4.25;3.50;;;4.50;99.90;;;;;;4973444;28;20232;-70
2023/11/18 09:28:36;;;;;;;6.43;3.92;;;4.60;99.90;;;;;;4972513;28;20211;-70
2023/11/18 09:31:03;;;;;;;4.45;3.63;;;4.70;99.90;;;;;;4973264;28;20251;-70
2023/11/18 09:33:32;;;;;;;5.63;4.22;;;4.80;99.90;;;;;;4971681;28;20208;-71
2023/11/18 09:36:00;;;;;;;5.88;3.95;;;4.80;99.90;;;;;;4964137;28;20228;-71
2023/11/18 09:38:29;;;;;;;3.58;3.28;;;4.90;99.90;;;;;;4971558;28;20617;-71
2023/11/18 09:40:57;;;;;;;3.58;2.60;;;5.00;99.90;;;;;;4966385;28;20224;-71
2023/11/18 09:43:26;;;;;;;2.90;2.60;;;5.00;99.90;;;;;;4970042;28;20213;-70
2023/11/18 09:45:56;;;;;;;3.28;3.13;;;5.00;99.90;;;;;;4963580;28;20761;-70
2023/11/18 09:48:26;;;;;;;3.95;3.75;;;5.10;99.90;;;;;;4968515;28;20629;-71
2023/11/18 09:50:54;;;;;;;3.92;3.63;;;5.10;99.90;;;;;;4957587;28;20698;-71
2023/11/18 09:53:25;;;;;;;2.70;2.58;;;5.10;99.90;;;;;;4961586;28;20304;-71
2023/11/18 09:55:59;;;;;;;2.97;2.65;;;5.20;99.90;;;;;;4965870;28;20211;-70
2023/11/18 09:58:31;;;;;;;3.95;3.33;;;5.20;99.90;;;;;;4967487;28;20602;-71
2023/11/18 10:01:02;;;;;;;3.28;3.05;;;5.20;99.90;;;;;;4970258;28;20599;-71
2023/11/18 10:03:29;;;;;;;2.80;2.50;;;5.30;99.90;;;;;;4963507;28;20278;-71
2023/11/18 10:05:57;;;;;;;2.30;2.20;;;5.30;99.90;;;;;;4967661;28;20342;-71
2023/11/18 10:08:26;;;;;;;5.03;2.85;;;5.40;99.90;;;;;;4963740;28;20636;-71
2023/11/18 10:11:04;;;;;;;2.42;1.83;;;5.40;99.90;;;;;;4971965;28;20236;-71
2023/11/18 10:13:34;;;;;;;3.05;2.30;;;5.40;99.90;;;;;;4962431;28;20331;-70
2023/11/18 10:16:01;;;;;;;3.72;3.35;;;5.50;99.90;;;;;;4969242;28;20224;-71
2023/11/18 10:18:28;;;;;;;2.47;2.28;;;5.60;99.90;;;;;;4970142;28;20204;-70
2023/11/18 10:20:55;;;;;;;2.15;1.90;;;5.60;99.90;;;;;;4972867;28;20224;-71
2023/11/18 10:23:23;;;;;;;1.92;1.83;;;5.70;99.90;;;;;;4967715;28;20541;-71
2023/11/18 10:25:52;;;;;;;2.63;2.40;;;5.80;99.90;;;;;;4970480;28;20701;-71
2023/11/18 10:28:24;;;;;;;4.15;2.53;;;5.90;99.90;;;;;;4969256;28;20239;-70
2023/11/18 10:30:51;;;;;;;2.72;2.47;;;6.10;99.90;;;;;;4966713;28;20240;-70
2023/11/18 10:33:19;;;;;;;2.53;2.42;;;6.20;99.90;;;;;;4969734;28;20220;-70
2023/11/18 10:35:55;;;;;;;3.35;2.08;;;6.40;99.90;;;;;;4966686;28;20204;-70
2023/11/18 10:38:25;;;;;;;2.78;2.42;;;6.60;99.90;;;;;;4969281;28;20217;-70
2023/11/18 10:40:55;;;;;;;1.85;1.75;;;6.60;99.90;;;;;;4970919;28;20236;-70
2023/11/18 10:43:24;;;;;;;1.63;1.48;;;6.70;99.90;;;;;;4969176;28;20221;-69
2023/11/18 10:45:52;;;;;;;2.22;2.10;;;6.60;99.90;;;;;;4965923;28;20310;-70
2023/11/18 10:48:21;;;;;;;2.85;2.50;;;6.60;99.90;;;;;;4968127;28;20205;-70
2023/11/18 10:50:49;;;;;;;1.67;1.67;;;6.50;99.90;;;;;;4968314;28;20307;-70
2023/11/18 10:53:17;;;;;;;2.40;2.28;;;6.40;99.90;;;;;;4963597;28;20204;-71
2023/11/18 10:55:44;;;;;;;1.25;1.23;;;6.50;99.90;;;;;;4964760;28;20211;-70
2023/11/18 10:58:14;;;;;;;1.45;1.45;;;6.50;99.90;;;;;;4966578;28;20212;-70
2023/11/18 11:00:49;;;;;;;1.77;1.42;;;6.50;99.90;;;;;;4967541;28;20604;-70
2023/11/18 11:03:18;;;;;;;1.88;1.80;;;6.60;99.90;;;;;;4970322;28;20210;-70
2023/11/18 11:05:44;;;;;;;1.75;1.70;;;6.70;99.90;;;;;;4972056;28;20590;-71
2023/11/18 11:08:15;;;;;;;2.33;2.13;;;6.70;99.90;;;;;;4964004;28;20207;-71
2023/11/18 11:10:43;;;;;;;2.15;1.73;;;6.70;99.90;;;;;;4971610;28;20320;-71
2023/11/18 11:13:10;;;;;;;2.20;2.00;;;6.70;99.90;;;;;;4969294;28;20216;-71
2023/11/18 11:15:45;;;;;;;1.95;1.85;;;6.70;99.90;;;;;;4968325;28;20284;-71
2023/11/18 11:18:23;;;;;;;2.30;2.20;;;6.70;99.90;;;;;;4965096;28;20216;-70
2023/11/18 11:21:03;;;;;;;1.88;1.77;;;6.70;99.90;;;;;;4965403;28;20228;-71
2023/11/18 11:23:43;;;;;;;2.28;2.08;;;6.70;99.90;;;;;;4967813;28;20212;-71
2023/11/18 11:26:22;;;;;;;2.60;2.40;;;6.70;99.90;;;;;;4962145;28;20251;-71
2023/11/18 11:28:54;;;;;;;2.92;2.45;;;6.80;99.90;;;;;;4964329;28;20204;-71
2023/11/18 11:31:23;;;;;;;1.48;1.45;;;6.80;99.90;;;;;;4959472;28;20224;-70
2023/11/18 11:33:59;;;;;;;1.58;1.48;;;6.90;99.90;;;;;;4966927;28;20211;-72
2023/11/18 11:36:33;;;;;;;1.98;1.88;;;6.90;99.90;;;;;;4969007;28;20207;-72
2023/11/18 11:39:01;;;;;;;1.35;1.35;;;6.90;99.90;;;;;;4964970;28;20215;-72
2023/11/18 11:41:34;;;;;;;1.73;1.63;;;6.90;99.90;;;;;;4967743;28;20318;-70
2023/11/18 11:44:05;;;;;;;2.50;2.25;;;7.00;99.90;;;;;;4969190;28;20639;-71
2023/11/18 11:46:35;;;;;;;0.73;0.73;;;6.90;99.90;;;;;;4970748;28;20228;-72
2023/11/18 11:49:15;;;;;;;1.45;1.25;;;6.90;99.90;;;;;;4968565;28;20289;-72
2023/11/18 11:51:48;;;;;;;1.40;1.40;;;6.90;99.90;;;;;;4971590;28;20234;-72
2023/11/18 11:54:21;;;;;;;1.23;1.23;;;6.90;99.90;;;;;;4969634;28;20205;-72
2023/11/18 11:56:55;;;;;;;1.42;1.33;;;6.90;99.90;;;;;;4963798;28;20196;-71
2023/11/18 11:59:37;;;;;;;2.95;1.13;;;7.00;99.90;;;;;;4965062;28;20295;-71
2023/11/18 12:02:07;;;;;;;1.38;0.65;;;7.00;99.90;;;;;;4982946;28;20236;-71
2023/11/18 12:04:37;;;;;;;1.20;1.10;;;7.00;99.90;;;;;;4989147;28;20316;-70
2023/11/18 12:07:05;;;;;;;1.38;1.38;;;7.00;99.90;;;;;;4970952;28;20225;-72
2023/11/18 12:09:37;;;;;;;1.63;1.52;;;7.00;99.90;;;;;;4982022;28;20269;-72
2023/11/18 12:12:09;;;;;;;1.08;1.02;;;7.00;99.90;;;;;;4975612;28;20293;-72
2023/11/18 12:14:50;;;;;;;0.90;0.90;;;7.00;99.90;;;;;;4979714;28;20300;-72
2023/11/18 12:17:21;;;;;;;0.75;0.75;;;7.00;99.90;;;;;;4964848;28;20200;-72
2023/11/18 12:19:58;;;;;;;1.58;1.50;;;7.00;99.90;;;;;;4972705;28;20234;-72
2023/11/18 12:22:26;;;;;;;1.10;1.00;;;7.00;99.90;;;;;;4966840;28;20640;-72
2023/11/18 12:25:36;;;;;;;2.20;2.10;;;6.90;99.90;;;;;;4964425;28;20296;-72
2023/11/18 12:28:15;;;;;;;0.95;0.95;;;6.90;99.90;;;;;;4966830;28;20216;-72
2023/11/18 12:34:02;;;;;;;2.05;1.85;;;6.90;99.90;;;;;;4967142;28;20215;-71
2023/11/18 12:36:59;;;;;;;1.75;1.65;;;6.90;99.90;;;;;;4967797;28;20201;-72
2023/11/18 12:39:58;;;;;;;0.70;0.70;;;6.90;99.90;;;;;;4968202;28;20232;-72
2023/11/18 12:42:59;;;;;;;0.93;0.90;;;6.90;99.90;;;;;;4964065;28;20241;-72
2023/11/18 12:46:05;;;;;;;1.63;1.60;;;6.80;99.90;;;;;;4968833;28;20205;-72
2023/11/18 12:48:32;;;;;;;2.58;2.38;;;6.90;99.90;;;;;;4954907;28;20227;-72
2023/11/18 12:51:00;;;;;;;1.40;1.30;;;6.90;99.90;;;;;;4968750;28;20286;-72
2023/11/18 12:53:29;;;;;;;1.25;1.25;;;6.90;99.90;;;;;;4970951;28;20282;-72
2023/11/18 12:55:56;;;;;;;1.77;1.77;;;6.90;99.90;;;;;;4964916;28;20643;-72
2023/11/18 12:58:23;;;;;;;1.70;1.60;;;6.90;99.90;;;;;;4972797;28;20556;-72
2023/11/18 13:00:50;;;;;;;2.15;1.52;;;6.90;99.90;;;;;;4968010;28;20240;-72
2023/11/18 13:03:17;;;;;;;1.30;1.20;;;6.80;99.90;;;;;;4974928;28;20211;-72
2023/11/18 13:05:45;;;;;;;1.15;1.15;;;6.80;99.90;;;;;;4968516;28;20208;-72
2023/11/18 13:08:15;;;;;;;1.35;1.35;;;6.80;99.90;;;;;;4965734;28;20224;-72
2023/11/18 13:10:44;;;;;;;1.25;1.20;;;6.80;99.90;;;;;;4969866;28;20225;-72
2023/11/18 13:13:13;;;;;;;1.42;1.42;;;6.80;99.90;;;;;;4970853;28;20331;-72
2023/11/18 13:15:41;;;;;;;2.72;1.42;;;6.80;99.90;;;;;;4970054;28;20205;-72
2023/11/18 13:18:07;;;;;;;2.00;1.85;;;6.80;99.90;;;;;;4973720;28;20551;-71
2023/11/18 13:20:35;;;;;;;1.45;1.45;;;6.80;99.90;;;;;;4970601;28;20232;-72
2023/11/18 13:23:08;;;;;;;2.00;1.90;;;6.80;99.90;;;;;;4970741;28;20273;-72
2023/11/18 13:25:35;;;;;;;1.98;1.83;;;6.80;99.90;;;;;;4961955;28;20217;-72
2023/11/18 13:28:05;;;;;;;2.15;2.03;;;6.80;99.90;;;;;;4963098;28;20233;-72
2023/11/18 13:30:32;;;;;;;2.00;1.90;;;6.80;99.90;;;;;;4971745;28;20204;-73
2023/11/18 13:32:58;;;;;;;1.80;1.70;;;6.80;99.90;;;;;;4963501;28;20212;-72
2023/11/18 13:35:26;;;;;;;1.80;1.80;;;6.80;99.90;;;;;;4969337;28;20209;-73
2023/11/18 13:37:53;;;;;;;1.73;1.63;;;6.80;99.90;;;;;;4971726;28;20201;-73
2023/11/18 13:40:20;;;;;;;1.67;1.58;;;6.80;99.90;;;;;;4962908;28;20212;-73
2023/11/18 13:42:47;;;;;;;1.60;1.50;;;6.80;99.90;;;;;;4964444;28;20219;-73
2023/11/18 13:45:19;;;;;;;0.82;0.82;;;6.70;99.90;;;;;;4962985;28;20217;-73
2023/11/18 13:47:51;;;;;;;1.65;1.55;;;6.70;99.90;;;;;;4970398;28;20324;-73
2023/11/18 13:50:19;;;;;;;2.13;1.30;;;6.70;99.90;;;;;;4965115;28;20280;-73
2023/11/18 13:52:47;;;;;;;1.80;1.70;;;6.70;99.90;;;;;;4971310;28;20287;-73
2023/11/18 13:55:25;;;;;;;1.30;1.00;;;6.70;99.90;;;;;;4968975;28;20585;-73
2023/11/18 13:57:53;;;;;;;1.63;1.38;;;6.70;99.90;;;;;;4971931;28;20248;-73
2023/11/18 14:00:26;;;;;;;2.50;1.77;;;6.70;99.90;;;;;;4967927;28;20209;-73
2023/11/18 14:02:54;;;;;;;1.85;1.75;;;6.70;99.90;;;;;;4954622;28;20297;-73
2023/11/18 14:05:24;;;;;;;2.08;1.25;;;6.60;99.90;;;;;;4967587;28;20214;-76
2023/11/18 14:07:51;;;;;;;2.15;2.05;;;6.70;99.90;;;;;;4969001;28;20221;-74
2023/11/18 14:10:19;;;;;;;1.58;1.33;;;6.60;99.90;;;;;;4963551;28;20200;-74
2023/11/18 14:13:02;;;;;;;2.83;2.05;;;6.60;99.90;;;;;;4967170;28;20236;-73
2023/11/18 14:15:30;;;;;;;2.20;1.92;;;6.50;99.90;;;;;;4970989;28;20204;-73
2023/11/18 14:17:57;;;;;;;1.33;1.25;;;6.50;99.90;;;;;;4957472;28;20205;-72
2023/11/18 14:20:24;;;;;;;3.55;2.40;;;6.50;99.90;;;;;;4963970;28;20208;-72
2023/11/18 14:22:52;;;;;;;1.45;1.45;;;6.40;99.90;;;;;;4969217;28;20219;-71
2023/11/18 14:25:18;;;;;;;1.83;1.73;;;6.40;99.90;;;;;;4970064;28;20208;-71
2023/11/18 14:27:45;;;;;;;1.55;1.55;;;6.40;99.90;;;;;;4970163;28;20597;-72
2023/11/18 14:30:13;;;;;;;2.35;2.17;;;6.40;99.90;;;;;;4971599;28;20245;-72
2023/11/18 14:32:41;;;;;;;2.20;2.10;;;6.40;99.90;;;;;;4972276;28;20212;-72
2023/11/18 14:35:09;;;;;;;2.83;2.60;;;6.40;99.90;;;;;;4965112;28;20213;-72
2023/11/18 14:37:41;;;;;;;2.22;1.77;;;6.40;99.90;;;;;;4965263;28;20236;-72
2023/11/18 14:40:13;;;;;;;1.90;1.80;;;6.30;99.90;;;;;;4970565;28;20216;-72
2023/11/18 14:42:40;;;;;;;2.75;2.55;;;6.30;99.90;;;;;;4966671;28;20672;-71
2023/11/18 14:45:08;;;;;;;1.55;1.55;;;6.30;99.90;;;;;;4966968;28;20259;-71
2023/11/18 14:47:35;;;;;;;1.45;1.35;;;6.30;99.90;;;;;;4962310;28;20290;-72
2023/11/18 14:50:05;;;;;;;1.05;1.05;;;6.20;99.90;;;;;;4967010;28;20204;-71
2023/11/18 14:52:32;;;;;;;1.80;1.73;;;6.20;99.90;;;;;;4971449;28;20282;-72
2023/11/18 14:54:58;;;;;;;2.70;2.60;;;6.20;99.90;;;;;;4967930;28;20614;-72
2023/11/18 14:57:25;;;;;;;3.88;2.00;;;6.20;99.90;;;;;;4971082;28;20590;-72
2023/11/18 14:59:52;;;;;;;0.80;0.68;;;6.10;99.90;;;;;;4967614;28;20221;-72
2023/11/18 15:02:19;;;;;;;2.03;1.92;;;6.20;99.90;;;;;;4967633;28;20232;-72
2023/11/18 15:04:46;;;;;;;1.88;1.77;;;6.10;99.90;;;;;;4963728;28;20204;-72
2023/11/18 15:07:14;;;;;;;0.98;0.85;;;6.10;99.90;;;;;;4963370;28;20231;-71
2023/11/18 15:09:41;;;;;;;0.82;0.82;;;6.10;99.90;;;;;;4961038;28;20275;-70
2023/11/18 15:12:09;;;;;;;1.25;1.25;;;6.10;99.90;;;;;;4966197;28;20777;-70
2023/11/18 15:14:36;;;;;;;2.40;1.92;;;6.10;99.90;;;;;;4968624;28;20283;-71
2023/11/18 15:17:03;;;;;;;1.83;1.50;;;6.10;99.90;;;;;;4969693;28;20629;-71
2023/11/18 15:19:33;;;;;;;2.35;2.17;;;6.10;99.90;;;;;;4968917;28;20312;-71
2023/11/18 15:21:59;;;;;;;3.38;2.20;;;6.10;99.90;;;;;;4970053;28;20236;-71
2023/11/18 15:24:27;;;;;;;2.67;2.53;;;6.10;99.90;;;;;;4968896;28;20280;-72
2023/11/18 15:26:55;;;;;;;1.77;1.67;;;6.10;99.90;;;;;;4967816;28;20228;-72
2023/11/18 15:29:28;;;;;;;2.15;2.05;;;6.10;99.90;;;;;;4967655;28;20639;-73
2023/11/18 15:31:54;;;;;;;3.05;2.10;;;6.10;99.90;;;;;;4970594;28;20228;-74
2023/11/18 15:34:22;;;;;;;2.42;2.33;;;6.10;99.90;;;;;;4961753;28;20267;-74
2023/11/18 15:36:48;;;;;;;2.58;2.38;;;6.10;99.90;;;;;;4964535;28;20647;-74
2023/11/18 15:39:15;;;;;;;2.15;1.70;;;6.00;99.90;;;;;;4964205;28;20212;-75
2023/11/18 15:41:43;;;;;;;2.08;1.95;;;6.00;99.90;;;;;;4965570;28;20224;-74
2023/11/18 15:44:12;;;;;;;2.35;2.15;;;6.10;99.90;;;;;;4963430;28;20216;-73
2023/11/18 15:46:39;;;;;;;2.65;2.53;;;6.10;99.90;;;;;;4964903;28;20550;-74
2023/11/18 15:49:06;;;;;;;2.78;2.60;;;6.10;99.90;;;;;;4966759;28;20216;-74
2023/11/18 15:51:33;;;;;;;3.42;1.85;;;6.10;99.90;;;;;;4972279;28;20597;-74
2023/11/18 15:53:59;;;;;;;1.75;1.65;;;6.10;99.90;;;;;;4966923;28;20201;-73
2023/11/18 15:56:26;;;;;;;3.15;1.70;;;6.10;99.90;;;;;;4963470;28;20594;-74
2023/11/18 15:58:54;;;;;;;2.65;2.45;;;6.10;99.90;;;;;;4957045;28;20205;-74
2023/11/18 16:01:22;;;;;;;2.15;2.05;;;6.10;99.90;;;;;;4973167;28;20701;-74
2023/11/18 16:03:50;;;;;;;2.50;2.13;;;6.10;99.90;;;;;;4968461;28;20295;-74
2023/11/18 16:06:16;;;;;;;3.45;3.25;;;6.10;99.90;;;;;;4973305;28;20222;-74
2023/11/18 16:08:45;;;;;;;3.38;2.72;;;6.10;99.90;;;;;;4973849;28;20543;-74
2023/11/18 16:11:12;;;;;;;2.20;2.10;;;6.10;99.90;;;;;;4965834;28;20275;-74
2023/11/18 16:13:39;;;;;;;1.98;1.88;;;6.10;99.90;;;;;;4974520;28;20227;-75
2023/11/18 16:16:08;;;;;;;3.42;2.53;;;6.10;99.90;;;;;;4967289;28;20212;-75
2023/11/18 16:18:35;;;;;;;5.72;3.40;;;6.10;99.90;;;;;;4965967;28;20303;-74
2023/11/18 16:21:03;;;;;;;3.80;2.53;;;6.10;99.90;;;;;;4965712;28;20228;-74
2023/11/18 16:23:34;;;;;;;3.92;2.30;;;6.10;99.90;;;;;;4966849;28;20302;-73
2023/11/18 16:26:01;;;;;;;3.55;3.22;;;6.10;99.90;;;;;;4965365;28;20205;-74
2023/11/18 16:28:29;;;;;;;4.13;3.78;;;6.10;99.90;;;;;;4971737;28;20229;-74
2023/11/18 16:30:56;;;;;;;2.53;2.42;;;6.10;99.90;;;;;;4965486;28;20261;-74
2023/11/18 16:33:25;;;;;;;3.58;3.28;;;6.10;99.90;;;;;;4963324;28;20228;-74
2023/11/18 16:35:52;;;;;;;2.92;2.75;;;6.10;99.90;;;;;;4965451;28;20599;-74
2023/11/18 16:38:19;;;;;;;2.92;2.72;;;6.10;99.90;;;;;;4971305;28;20204;-74
2023/11/18 16:40:46;;;;;;;6.47;3.97;;;6.10;99.90;;;;;;4969997;28;20240;-73
2023/11/18 16:43:12;;;;;;;4.28;3.97;;;6.20;99.90;;;;;;4964627;28;20216;-73
2023/11/18 16:45:40;;;;;;;3.83;3.50;;;6.20;99.90;;;;;;4962216;28;20644;-74
2023/11/18 16:48:06;;;;;;;4.65;3.42;;;6.20;99.90;;;;;;4969106;28;20239;-73
2023/11/18 16:50:35;;;;;;;6.63;4.30;;;6.20;99.90;;;;;;4973118;28;20221;-74
2023/11/18 16:53:03;;;;;;;6.32;4.10;;;6.20;99.90;;;;;;4965578;28;20850;-74
2023/11/18 16:55:32;;;;;;;5.22;3.90;;;6.20;99.90;;;;;;4973262;28;20580;-74
2023/11/18 16:57:59;;;;;;;5.60;4.65;;;6.20;99.90;;;;;;4973809;28;20235;-74
2023/11/18 17:00:27;;;;;;;4.38;4.03;;;6.10;99.90;;;;;;4971273;28;20220;-73
2023/11/18 17:02:55;;;;;;;3.55;3.28;;;6.10;99.90;;;;;;4969339;28;20213;-73
2023/11/18 17:05:22;;;;;;;7.43;4.93;;;6.10;99.90;;;;;;4970833;28;20283;-74
2023/11/18 17:07:50;;;;;;;8.07;5.32;;;6.00;99.90;;;;;;4972243;28;20235;-74
2023/11/18 17:10:17;;;;;;;10.77;4.13;;;6.00;99.90;;;;;;4970330;28;20212;-74
2023/11/18 17:12:45;;;;;;;6.10;4.05;;;6.00;99.90;;;;;;4973501;28;20581;-74
2023/11/18 17:15:13;;;;;;;7.50;6.10;;;6.00;99.90;;;;;;4971117;28;20652;-73
2023/11/18 17:17:40;;;;;;;6.95;4.72;;;5.90;99.90;;;;;;4962707;28;20196;-72
2023/11/18 17:20:10;;;;;;;8.45;5.15;;;5.90;99.90;;;;;;4965036;28;20216;-72
2023/11/18 17:22:38;;;;;;;6.45;5.60;;;5.90;99.90;;;;;;4972342;28;20228;-72
2023/11/18 17:25:09;;;;;;;9.45;6.18;;;5.90;99.90;;;;;;4973006;28;20220;-72
2023/11/18 17:27:39;;;;;;;11.43;6.35;;;5.90;99.90;;;;;;4962033;28;20225;-72
2023/11/18 17:30:11;;;;;;;7.80;5.03;;;5.80;99.90;;;;;;4969954;28;20216;-72
2023/11/18 17:32:38;;;;;;;7.53;5.55;;;5.80;99.90;;;;;;4970448;28;20232;-72
2023/11/18 17:35:06;;;;;;;3.85;3.55;;;5.80;99.90;;;;;;4962518;28;20220;-71
2023/11/18 17:37:33;;;;;;;7.50;5.72;;;5.80;99.90;;;;;;4972152;28;20213;-74
2023/11/18 17:39:59;;;;;;;4.45;3.97;;;5.70;99.90;;;;;;4971790;28;20204;-73
2023/11/18 17:42:28;;;;;;;4.90;4.45;;;5.70;99.90;;;;;;4961258;28;20231;-74
2023/11/18 17:44:54;;;;;;;9.60;7.00;;;5.70;99.90;;;;;;4971820;28;20290;-73
2023/11/18 17:47:22;;;;;;;9.55;5.68;;;5.70;99.90;;;;;;4971410;28;20291;-72
2023/11/18 17:49:48;;;;;;;10.25;6.18;;;5.60;99.90;;;;;;4971242;28;20208;-73
2023/11/18 17:52:15;;;;;;;11.32;7.13;;;5.60;99.90;;;;;;4971667;28;20232;-73
2023/11/18 17:54:43;;;;;;;7.03;5.32;;;5.60;99.90;;;;;;4970343;28;20212;-73
2023/11/18 17:57:10;;;;;;;13.88;7.30;;;5.60;99.90;;;;;;4971569;28;20304;-73
2023/11/18 17:59:38;;;;;;;7.10;5.68;;;5.60;99.90;;;;;;4969766;28;20228;-72
2023/11/18 18:02:05;;;;;;;12.25;6.82;;;5.50;99.90;;;;;;4971974;28;20623;-72
2023/11/18 18:04:32;;;;;;;9.63;5.70;;;5.50;99.90;;;;;;4969337;28;20208;-72
2023/11/18 18:06:58;;;;;;;9.38;5.20;;;5.50;99.90;;;;;;4968862;28;20209;-72
2023/11/18 18:09:25;;;;;;;6.43;3.80;;;5.40;99.90;;;;;;4961069;28;20228;-72